createdAt,value
2023-04-23T00:04:39.715Z,100.00
2023-04-23T00:09:44.966Z,100.00
2023-04-23T00:14:49.504Z,100.00
2023-04-23T00:19:54.806Z,100.00
2023-04-23T00:24:58.943Z,100.00
2023-04-23T00:30:03.313Z,100.00
2023-04-23T00:35:09.650Z,100.00
2023-04-23T00:40:13.769Z,100.00
2023-04-23T00:45:18.145Z,100.00
2023-04-23T00:50:24.139Z,100.00
2023-04-23T00:55:28.201Z,100.00
2023-04-23T01:00:32.105Z,100.00
2023-04-23T01:05:37.899Z,100.00
2023-04-23T01:10:42.077Z,100.00
2023-04-23T01:15:46.710Z,100.00
2023-04-23T01:20:52.667Z,100.00
2023-04-23T01:25:59.026Z,100.00
2023-04-23T01:31:04.139Z,100.00
2023-04-23T01:36:09.628Z,100.00
2023-04-23T01:41:15.504Z,100.00
2023-04-23T01:46:19.700Z,100.00
2023-04-23T01:51:25.811Z,100.00
2023-04-23T01:56:33.427Z,100.00
2023-04-23T02:01:45.328Z,100.00
2023-04-23T02:06:52.206Z,100.00
2023-04-23T02:11:57.785Z,100.00
2023-04-23T02:17:02.445Z,100.00
2023-04-23T02:22:07.521Z,100.00
2023-04-23T02:27:12.972Z,100.00
2023-04-23T02:32:17.155Z,100.00
2023-04-23T02:37:21.457Z,100.00
2023-04-23T02:42:26.878Z,100.00
2023-04-23T02:47:31.566Z,100.00
2023-04-23T02:52:35.841Z,100.00
2023-04-23T02:57:41.545Z,100.00
2023-04-23T03:02:45.866Z,100.00
2023-04-23T03:07:49.994Z,100.00
2023-04-23T03:12:56.551Z,100.00
2023-04-23T03:18:01.473Z,100.00
2023-04-23T03:23:06.516Z,100.00
2023-04-23T03:28:12.126Z,100.00
2023-04-23T03:33:16.079Z,100.00
2023-04-23T03:38:20.082Z,100.00
2023-04-23T03:43:26.137Z,100.00
2023-04-23T03:48:42.063Z,100.00
2023-04-23T03:53:52.649Z,100.00
2023-04-23T03:59:21.249Z,100.00
2023-04-23T04:04:27.281Z,100.00
2023-04-23T04:09:32.658Z,100.00
2023-04-23T04:14:40.188Z,100.00
2023-04-23T04:19:44.362Z,100.00
2023-04-23T04:24:48.609Z,95.42
2023-04-23T04:29:53.994Z,89.59
2023-04-23T04:34:58.502Z,87.65
2023-04-23T04:40:02.728Z,92.01
2023-04-23T04:45:10.233Z,87.59
2023-04-23T04:50:14.158Z,87.40
2023-04-23T04:55:18.266Z,88.24
2023-04-23T05:00:27.990Z,89.98
2023-04-23T05:05:33.566Z,98.55
2023-04-23T05:10:37.638Z,87.67
2023-04-23T05:15:43.040Z,82.85
2023-04-23T05:20:46.987Z,81.35
2023-04-23T05:25:54.168Z,75.98
2023-04-23T05:31:00.234Z,72.76
2023-04-23T05:36:04.327Z,76.62
2023-04-23T05:41:08.303Z,71.30
2023-04-23T05:46:13.629Z,69.49
2023-04-23T05:51:17.645Z,75.27
2023-04-23T05:56:22.249Z,69.59
2023-04-23T06:01:28.810Z,60.10
2023-04-23T06:06:33.108Z,58.08
2023-04-23T06:11:37.170Z,53.33
2023-04-23T06:16:42.517Z,53.58
2023-04-23T06:21:46.520Z,54.37
2023-04-23T06:26:50.560Z,57.45
2023-04-23T06:32:02.681Z,57.16
2023-04-23T06:37:06.721Z,56.88
2023-04-23T06:42:10.632Z,59.71
2023-04-23T06:47:27.981Z,55.84
2023-04-23T06:52:32.018Z,54.31
2023-04-23T06:57:36.104Z,51.54
2023-04-23T07:02:41.510Z,54.19
2023-04-23T07:07:46.647Z,50.99
2023-04-23T07:12:51.587Z,53.06
2023-04-23T07:17:56.963Z,52.12
2023-04-23T07:23:01.203Z,49.45
2023-04-23T07:28:05.309Z,49.51
2023-04-23T07:33:10.837Z,49.81
2023-04-23T07:38:14.741Z,50.93
2023-04-23T07:43:18.912Z,45.76
2023-04-23T07:48:24.302Z,47.21
2023-04-23T07:53:29.290Z,45.85
2023-04-23T07:58:33.902Z,45.77
2023-04-23T08:03:40.689Z,42.98
2023-04-23T08:08:44.789Z,46.77
2023-04-23T08:13:48.956Z,47.61
2023-04-23T08:19:04.955Z,45.81
2023-04-23T08:24:10.128Z,43.82
2023-04-23T08:29:14.105Z,42.69
2023-04-23T08:34:19.478Z,42.04
2023-04-23T08:39:23.851Z,41.99
2023-04-23T08:44:28.663Z,43.28
2023-04-23T08:49:35.768Z,42.65
2023-04-23T08:54:46.454Z,41.87
2023-04-23T08:59:50.468Z,40.05
2023-04-23T09:05:04.545Z,43.12
2023-04-23T09:10:11.422Z,41.54
2023-04-23T09:15:15.662Z,39.20
2023-04-23T09:20:21.955Z,39.39
2023-04-23T09:25:26.149Z,38.47
2023-04-23T09:30:31.504Z,38.85
2023-04-23T09:35:38.500Z,38.36
2023-04-23T09:40:44.253Z,39.62
2023-04-23T09:45:51.110Z,41.42
2023-04-23T09:50:57.599Z,40.28
2023-04-23T09:56:01.716Z,39.34
2023-04-23T10:01:08.886Z,40.20
2023-04-23T10:06:30.528Z,39.38
2023-04-23T10:11:35.508Z,38.93
2023-04-23T10:16:48.659Z,39.14
2023-04-23T10:22:02.263Z,37.15
2023-04-23T10:27:28.357Z,37.74
2023-04-23T10:32:40.693Z,37.09
2023-04-23T10:37:48.410Z,36.29
2023-04-23T10:42:52.953Z,35.05
2023-04-23T10:47:57.350Z,34.17
2023-04-23T10:53:03.707Z,33.79
2023-04-23T10:58:09.200Z,34.83
2023-04-23T11:03:32.770Z,34.52
2023-04-23T11:08:39.468Z,31.93
2023-04-23T11:13:53.938Z,31.20
2023-04-23T11:18:59.928Z,32.46
2023-04-23T11:24:08.582Z,31.33
2023-04-23T11:29:15.648Z,30.18
2023-04-23T11:34:20.105Z,27.53
2023-04-23T11:39:25.906Z,28.08
2023-04-23T11:44:30.226Z,29.22
2023-04-23T11:49:34.840Z,27.28
2023-04-23T11:54:41.995Z,27.35
2023-04-23T11:59:46.993Z,25.31
2023-04-23T12:04:50.925Z,27.18
2023-04-23T12:10:00.131Z,25.62
2023-04-23T12:15:08.542Z,26.16
2023-04-23T12:20:18.879Z,26.11
2023-04-23T12:25:25.047Z,26.40
2023-04-23T12:30:31.861Z,24.72
2023-04-23T12:35:40.491Z,24.80
2023-04-23T12:40:45.824Z,23.57
2023-04-23T12:45:49.905Z,23.91
2023-04-23T12:50:55.804Z,23.33
2023-04-23T12:56:01.387Z,25.11
2023-04-23T13:01:05.538Z,26.60
2023-04-23T13:06:09.642Z,26.57
2023-04-23T13:11:14.932Z,25.00
2023-04-23T13:16:19.263Z,25.36
2023-04-23T13:21:24.951Z,25.63
2023-04-23T13:26:32.113Z,25.38
2023-04-23T13:31:36.150Z,25.80
2023-04-23T13:36:41.760Z,25.31
2023-04-23T13:41:59.168Z,27.67
2023-04-23T13:47:10.645Z,26.75
2023-04-23T13:52:15.656Z,25.57
2023-04-23T13:57:21.020Z,24.55
2023-04-23T14:02:25.139Z,24.20
2023-04-23T14:07:29.490Z,23.97
2023-04-23T14:12:34.817Z,23.97
2023-04-23T14:17:40.765Z,22.80
2023-04-23T14:22:49.703Z,24.21
2023-04-23T14:27:57.228Z,22.95
2023-04-23T14:33:01.331Z,22.99
2023-04-23T14:38:05.538Z,22.33
2023-04-23T14:43:15.528Z,24.02
2023-04-23T14:48:20.201Z,23.49
2023-04-23T14:53:24.207Z,22.00
2023-04-23T14:58:33.652Z,23.36
2023-04-23T15:03:40.276Z,22.89
2023-04-23T15:08:44.139Z,22.23
2023-04-23T15:13:59.960Z,22.31
2023-04-23T15:19:06.394Z,22.32
2023-04-23T15:24:10.623Z,22.63
2023-04-23T15:29:16.189Z,24.17
2023-04-23T15:34:20.134Z,24.81
2023-04-23T15:39:24.235Z,24.48
2023-04-23T15:44:29.684Z,24.57
2023-04-23T15:49:33.695Z,24.38
2023-04-23T15:54:37.647Z,26.24
2023-04-23T15:59:43.260Z,27.15
2023-04-23T16:04:47.621Z,27.85
2023-04-23T16:09:51.587Z,29.07
2023-04-23T16:14:56.994Z,29.54
2023-04-23T16:20:01.152Z,28.92
2023-04-23T16:25:05.653Z,28.14
2023-04-23T16:30:11.993Z,28.67
2023-04-23T16:35:16.022Z,28.95
2023-04-23T16:40:21.578Z,30.05
2023-04-23T16:45:27.026Z,32.29
2023-04-23T16:50:30.911Z,33.81
2023-04-23T16:55:35.186Z,34.65
2023-04-23T17:00:40.718Z,35.58
2023-04-23T17:05:45.741Z,35.70
2023-04-23T17:10:49.756Z,36.86
2023-04-23T17:15:55.570Z,38.65
2023-04-23T17:20:59.522Z,38.14
2023-04-23T17:26:03.671Z,38.69
2023-04-23T17:31:09.247Z,39.42
2023-04-23T17:36:13.498Z,40.50
2023-04-23T17:41:19.242Z,41.28
2023-04-23T17:46:24.471Z,42.08
2023-04-23T17:51:28.561Z,41.99
2023-04-23T17:56:32.684Z,42.57
2023-04-23T18:01:38.619Z,43.01
2023-04-23T18:06:42.751Z,43.20
2023-04-23T18:11:46.699Z,45.98
2023-04-23T18:16:52.153Z,46.29
2023-04-23T18:21:56.843Z,45.97
2023-04-23T18:27:03.451Z,47.14
2023-04-23T18:32:08.814Z,47.60
2023-04-23T18:37:33.244Z,48.82
2023-04-23T18:42:37.420Z,49.99
2023-04-23T18:47:51.298Z,50.27
2023-04-23T18:52:55.851Z,49.65
2023-04-23T18:57:59.840Z,49.70
2023-04-23T19:03:15.165Z,48.81
2023-04-23T19:08:28.553Z,48.38
2023-04-23T19:13:32.714Z,51.51
2023-04-23T19:18:38.639Z,50.24
2023-04-23T19:23:42.529Z,49.49
2023-04-23T19:28:46.749Z,50.06
2023-04-23T19:33:52.113Z,51.12
2023-04-23T19:38:56.257Z,49.80
2023-04-23T19:44:00.352Z,50.57
2023-04-23T19:49:05.751Z,52.59
2023-04-23T19:54:09.795Z,52.72
2023-04-23T19:59:15.451Z,53.27
2023-04-23T20:04:20.794Z,53.14
2023-04-23T20:09:25.557Z,55.72
2023-04-23T20:14:30.046Z,54.69
2023-04-23T20:19:35.524Z,55.03
2023-04-23T20:24:40.438Z,55.07
2023-04-23T20:29:44.545Z,56.10
2023-04-23T20:34:49.945Z,55.61
2023-04-23T20:39:53.973Z,59.32
2023-04-23T20:44:58.355Z,60.56
2023-04-23T20:50:03.735Z,61.52
2023-04-23T20:55:08.541Z,62.53
2023-04-23T21:00:14.308Z,63.56
2023-04-23T21:05:19.486Z,66.22
2023-04-23T21:10:23.663Z,67.01
2023-04-23T21:15:29.711Z,63.85
2023-04-23T21:20:34.957Z,63.05
2023-04-23T21:25:39.955Z,64.73
2023-04-23T21:30:49.002Z,65.17
2023-04-23T21:35:54.846Z,67.88
2023-04-23T21:40:58.548Z,66.83
2023-04-23T21:46:02.688Z,67.66
2023-04-23T21:51:08.066Z,69.75
2023-04-23T21:56:11.921Z,71.57
2023-04-23T22:01:16.628Z,72.39
2023-04-23T22:06:23.292Z,70.15
2023-04-23T22:11:27.245Z,69.85
2023-04-23T22:16:31.597Z,69.28
2023-04-23T22:21:36.913Z,71.11
2023-04-23T22:26:40.978Z,76.62
2023-04-23T22:31:44.857Z,76.84
2023-04-23T22:36:50.314Z,79.16
2023-04-23T22:41:54.455Z,81.83
2023-04-23T22:46:58.403Z,79.88
2023-04-23T22:52:03.918Z,73.62
2023-04-23T22:57:09.991Z,74.96
2023-04-23T23:02:14.162Z,71.81
2023-04-23T23:07:20.094Z,70.78
2023-04-23T23:12:24.044Z,71.27
2023-04-23T23:17:27.941Z,69.73
2023-04-23T23:22:33.270Z,70.35
2023-04-23T23:27:37.214Z,69.42
2023-04-23T23:32:41.177Z,71.05
2023-04-23T23:37:46.648Z,70.30
2023-04-23T23:42:50.641Z,69.59
2023-04-23T23:47:54.712Z,72.13
2023-04-23T23:53:00.029Z,73.80
2023-04-23T23:58:03.922Z,71.57
